createdAt,value
2018-09-03T00:00:39.330Z,20.24
2018-09-03T00:01:39.401Z,20.21
2018-09-03T00:02:39.289Z,20.25
2018-09-03T00:03:39.306Z,20.20
2018-09-03T00:04:39.251Z,20.27
2018-09-03T00:05:39.320Z,20.27
2018-09-03T00:06:39.211Z,20.18
2018-09-03T00:07:39.229Z,20.25
2018-09-03T00:08:39.173Z,20.18
2018-09-03T00:09:39.244Z,20.16
2018-09-03T00:10:39.134Z,20.18
2018-09-03T00:11:39.154Z,20.15
2018-09-03T00:12:39.089Z,20.09
2018-09-03T00:13:39.167Z,20.21
2018-09-03T00:14:39.049Z,20.20
2018-09-03T00:15:39.078Z,20.20
2018-09-03T00:16:39.008Z,20.21
2018-09-03T00:17:39.095Z,20.20
2018-09-03T00:18:38.969Z,20.23
2018-09-03T00:19:39.001Z,20.20
2018-09-03T00:20:38.928Z,20.23
2018-09-03T00:21:39.014Z,20.15
2018-09-03T00:22:38.888Z,20.18
2018-09-03T00:23:38.918Z,20.21
2018-09-03T00:24:38.848Z,20.20
2018-09-03T00:25:38.932Z,20.21
2018-09-03T00:26:38.810Z,20.13
2018-09-03T00:27:38.842Z,20.18
2018-09-03T00:28:38.768Z,20.18
2018-09-03T00:29:38.856Z,20.16
2018-09-03T00:30:38.733Z,20.08
2018-09-03T00:31:38.766Z,20.16
2018-09-03T00:32:38.686Z,20.12
2018-09-03T00:33:38.787Z,20.12
2018-09-03T00:34:38.648Z,20.23
2018-09-03T00:35:38.692Z,20.16
2018-09-03T00:36:38.611Z,20.18
2018-09-03T00:37:38.705Z,20.21
2018-09-03T00:38:38.568Z,20.23
2018-09-03T00:39:38.614Z,20.18
2018-09-03T00:40:38.526Z,20.13
2018-09-03T00:41:38.532Z,20.09
2018-09-03T00:42:38.490Z,20.10
2018-09-03T00:43:38.541Z,20.13
2018-09-03T00:44:38.459Z,20.13
2018-09-03T00:45:38.444Z,20.20
2018-09-03T00:46:38.406Z,20.15
2018-09-03T00:47:38.456Z,20.13
2018-09-03T00:48:38.370Z,20.15
2018-09-03T00:49:38.367Z,20.18
2018-09-03T00:50:38.325Z,20.20
2018-09-03T00:51:38.379Z,20.20
2018-09-03T00:52:38.286Z,20.13
2018-09-03T00:53:38.290Z,20.16
2018-09-03T00:54:38.248Z,20.20
2018-09-03T00:55:38.306Z,20.16
2018-09-03T00:56:38.206Z,20.12
2018-09-03T00:57:38.219Z,20.23
2018-09-03T00:58:38.169Z,20.23
2018-09-03T00:59:38.225Z,20.15
2018-09-03T01:00:38.154Z,20.13
2018-09-03T01:01:38.139Z,20.09
2018-09-03T01:02:38.086Z,20.08
2018-09-03T01:03:38.147Z,20.12
2018-09-03T01:04:38.044Z,20.10
2018-09-03T01:05:38.059Z,20.12
2018-09-03T01:06:38.005Z,20.08
2018-09-03T01:07:38.993Z,20.06
2018-09-03T01:08:37.964Z,20.02
2018-09-03T01:09:37.980Z,20.06
2018-09-03T01:10:37.932Z,20.00
2018-09-03T01:11:37.993Z,20.06
2018-09-03T01:12:37.889Z,20.05
2018-09-03T01:13:37.902Z,20.05
2018-09-03T01:14:37.843Z,20.03
2018-09-03T01:15:37.914Z,20.03
2018-09-03T01:16:37.809Z,19.97
2018-09-03T01:17:37.830Z,20.03
2018-09-03T01:18:37.762Z,20.02
2018-09-03T01:19:37.840Z,20.02
2018-09-03T01:20:37.731Z,20.03
2018-09-03T01:21:37.753Z,19.91
2018-09-03T01:22:37.681Z,20.03
2018-09-03T01:23:37.765Z,20.02
2018-09-03T01:24:37.639Z,20.00
2018-09-03T01:25:37.670Z,19.90
2018-09-03T01:26:37.603Z,19.98
2018-09-03T01:27:37.685Z,19.95
2018-09-03T01:28:37.562Z,19.97
2018-09-03T01:29:37.605Z,19.88
2018-09-03T01:30:37.525Z,19.97
2018-09-03T01:31:37.605Z,19.95
2018-09-03T01:32:37.507Z,19.98
2018-09-03T01:33:37.515Z,19.91
2018-09-03T01:34:37.444Z,19.94
2018-09-03T01:35:37.528Z,19.93
2018-09-03T01:36:37.392Z,19.91
2018-09-03T01:37:37.442Z,19.90
2018-09-03T01:38:37.359Z,19.88
2018-09-03T01:39:37.453Z,19.88
2018-09-03T01:40:37.327Z,19.95
2018-09-03T01:41:37.362Z,19.80
2018-09-03T01:42:37.278Z,19.87
2018-09-03T01:43:37.375Z,19.86
2018-09-03T01:44:37.237Z,19.88
2018-09-03T01:45:37.288Z,19.80
2018-09-03T01:46:37.199Z,19.87
2018-09-03T01:47:37.200Z,19.78
2018-09-03T01:48:37.156Z,19.79
2018-09-03T01:49:37.209Z,19.76
2018-09-03T01:50:37.116Z,19.78
2018-09-03T01:51:37.119Z,19.80
2018-09-03T01:52:37.075Z,19.75
2018-09-03T01:53:37.130Z,19.79
2018-09-03T01:54:37.038Z,19.78
2018-09-03T01:55:37.040Z,19.80
2018-09-03T01:56:36.998Z,19.79
2018-09-03T01:57:37.047Z,19.80
2018-09-03T01:58:36.960Z,19.80
2018-09-03T01:59:36.961Z,19.80
2018-09-03T02:00:36.918Z,19.80
2018-09-03T02:01:36.972Z,19.83
2018-09-03T02:02:36.874Z,19.76
2018-09-03T02:03:36.882Z,19.80
2018-09-03T02:04:36.834Z,19.79
2018-09-03T02:05:36.896Z,19.76
2018-09-03T02:06:36.792Z,19.78
2018-09-03T02:07:36.806Z,19.80
2018-09-03T02:08:36.753Z,19.78
2018-09-03T02:09:36.818Z,19.78
2018-09-03T02:10:36.713Z,19.80
2018-09-03T02:11:36.732Z,19.84
2018-09-03T02:12:36.670Z,19.79
2018-09-03T02:13:36.744Z,19.83
2018-09-03T02:14:36.635Z,19.80
2018-09-03T02:15:36.650Z,19.83
2018-09-03T02:16:36.592Z,19.84
2018-09-03T02:17:36.667Z,19.75
2018-09-03T02:18:36.554Z,19.83
2018-09-03T02:19:36.577Z,19.75
2018-09-03T02:20:36.513Z,19.84
2018-09-03T02:21:36.592Z,19.80
2018-09-03T02:22:36.472Z,19.79
2018-09-03T02:23:36.501Z,19.83
2018-09-03T02:24:36.433Z,19.79
2018-09-03T02:25:36.513Z,19.73
2018-09-03T02:26:36.387Z,19.79
2018-09-03T02:27:36.421Z,19.78
2018-09-03T02:28:36.350Z,19.79
2018-09-03T02:29:36.433Z,19.75
2018-09-03T02:30:36.310Z,19.78
2018-09-03T02:31:36.343Z,19.78
2018-09-03T02:32:36.268Z,19.75
2018-09-03T02:33:36.368Z,19.70
2018-09-03T02:34:36.235Z,19.65
2018-09-03T02:35:36.268Z,19.70
2018-09-03T02:36:36.186Z,19.68
2018-09-03T02:37:36.281Z,19.68
2018-09-03T02:38:36.147Z,19.70
2018-09-03T02:39:36.188Z,19.68
2018-09-03T02:40:36.105Z,19.68
2018-09-03T02:41:36.099Z,19.68
2018-09-03T02:42:36.066Z,19.66
2018-09-03T02:43:36.109Z,19.65
2018-09-03T02:44:36.030Z,19.65
2018-09-03T02:45:36.018Z,19.63
2018-09-03T02:46:35.988Z,19.70
2018-09-03T02:47:36.030Z,19.66
2018-09-03T02:48:35.945Z,19.61
2018-09-03T02:49:35.941Z,19.61
2018-09-03T02:50:35.900Z,19.57
2018-09-03T02:51:35.953Z,19.61
2018-09-03T02:52:35.859Z,19.55
2018-09-03T02:53:35.865Z,19.55
2018-09-03T02:54:35.825Z,19.55
2018-09-03T02:55:35.878Z,19.54
2018-09-03T02:56:35.785Z,19.61
2018-09-03T02:57:35.787Z,19.66
2018-09-03T02:58:35.740Z,19.61
2018-09-03T02:59:35.797Z,19.65
2018-09-03T03:00:35.699Z,19.65
2018-09-03T03:01:35.709Z,19.66
2018-09-03T03:02:35.656Z,19.63
2018-09-03T03:03:35.720Z,19.65
2018-09-03T03:04:35.625Z,19.60
2018-09-03T03:05:35.631Z,19.66
2018-09-03T03:06:35.575Z,19.63
2018-09-03T03:07:35.645Z,19.54
2018-09-03T03:08:35.544Z,19.58
2018-09-03T03:09:35.555Z,19.54
2018-09-03T03:10:35.495Z,19.53
2018-09-03T03:11:35.575Z,19.65
2018-09-03T03:12:35.458Z,19.58
2018-09-03T03:13:35.483Z,19.58
2018-09-03T03:14:35.413Z,19.58
2018-09-03T03:15:35.496Z,19.51
2018-09-03T03:16:35.383Z,19.61
2018-09-03T03:17:35.401Z,19.61
2018-09-03T03:18:35.335Z,19.54
2018-09-03T03:19:35.415Z,19.63
2018-09-03T03:20:35.332Z,19.57
2018-09-03T03:21:35.332Z,19.51
2018-09-03T03:22:35.248Z,19.51
2018-09-03T03:23:35.336Z,19.42
2018-09-03T03:24:35.269Z,19.47
2018-09-03T03:25:35.244Z,19.43
2018-09-03T03:26:35.173Z,19.38
2018-09-03T03:27:35.258Z,19.40
2018-09-03T03:28:35.133Z,19.43
2018-09-03T03:29:35.169Z,19.40
2018-09-03T03:30:35.098Z,19.33
2018-09-03T03:31:35.180Z,19.33
2018-09-03T03:32:35.051Z,19.39
2018-09-03T03:33:35.094Z,19.33
2018-09-03T03:34:35.010Z,19.29
2018-09-03T03:35:35.004Z,19.32
2018-09-03T03:36:34.969Z,19.28
2018-09-03T03:37:35.015Z,19.25
2018-09-03T03:38:34.931Z,19.18
2018-09-03T03:39:34.925Z,19.23
2018-09-03T03:40:34.882Z,19.23
2018-09-03T03:41:34.943Z,19.13
2018-09-03T03:42:34.844Z,19.25
2018-09-03T03:43:34.851Z,19.13
2018-09-03T03:44:34.807Z,19.25
2018-09-03T03:45:34.859Z,19.21
2018-09-03T03:46:34.766Z,19.29
2018-09-03T03:47:34.773Z,19.29
2018-09-03T03:48:34.730Z,19.20
2018-09-03T03:49:34.788Z,19.25
2018-09-03T03:50:34.683Z,19.25
2018-09-03T03:51:34.692Z,19.28
2018-09-03T03:52:34.640Z,19.28
2018-09-03T03:53:34.708Z,19.15
2018-09-03T03:54:34.596Z,19.24
2018-09-03T03:55:34.618Z,19.18
2018-09-03T03:56:34.558Z,19.20
2018-09-03T03:57:34.628Z,19.24
2018-09-03T03:58:34.514Z,19.24
2018-09-03T03:59:34.538Z,19.18
2018-09-03T04:00:34.476Z,19.15
2018-09-03T04:01:34.552Z,19.17
2018-09-03T04:02:34.431Z,19.13
2018-09-03T04:03:34.461Z,19.13
2018-09-03T04:04:34.398Z,19.13
2018-09-03T04:05:34.475Z,19.18
2018-09-03T04:06:34.351Z,19.18
2018-09-03T04:07:34.384Z,19.14
2018-09-03T04:08:34.309Z,19.17
2018-09-03T04:09:34.398Z,19.15
2018-09-03T04:10:34.270Z,19.17
2018-09-03T04:11:34.308Z,19.11
2018-09-03T04:12:34.236Z,19.15
2018-09-03T04:13:34.317Z,19.17
2018-09-03T04:14:34.187Z,19.15
2018-09-03T04:15:34.234Z,19.10
2018-09-03T04:16:34.147Z,19.14
2018-09-03T04:17:34.245Z,19.15
2018-09-03T04:18:34.107Z,19.25
2018-09-03T04:19:34.161Z,19.13
2018-09-03T04:20:34.066Z,19.20
2018-09-03T04:21:34.067Z,19.25
2018-09-03T04:22:34.028Z,19.21
2018-09-03T04:23:34.077Z,19.14
2018-09-03T04:24:33.983Z,19.25
2018-09-03T04:25:33.995Z,19.17
2018-09-03T04:26:33.941Z,19.20
2018-09-03T04:27:34.005Z,19.13
2018-09-03T04:28:33.940Z,19.15
2018-09-03T04:29:33.915Z,19.20
2018-09-03T04:30:33.861Z,19.14
2018-09-03T04:31:33.920Z,19.15
2018-09-03T04:32:33.817Z,19.17
2018-09-03T04:33:33.826Z,19.15
2018-09-03T04:34:33.775Z,19.10
2018-09-03T04:35:33.841Z,19.23
2018-09-03T04:36:33.736Z,19.08
2018-09-03T04:37:33.748Z,19.08
2018-09-03T04:38:33.743Z,19.08
2018-09-03T04:39:33.764Z,19.15
2018-09-03T04:40:33.656Z,19.11
2018-09-03T04:41:33.673Z,19.14
2018-09-03T04:42:33.609Z,19.17
2018-09-03T04:43:33.686Z,19.10
2018-09-03T04:44:33.572Z,19.10
2018-09-03T04:45:33.596Z,19.10
2018-09-03T04:46:33.527Z,19.11
2018-09-03T04:47:33.610Z,19.10
2018-09-03T04:48:33.485Z,19.08
2018-09-03T04:49:33.518Z,19.06
2018-09-03T04:50:33.443Z,19.13
2018-09-03T04:51:33.534Z,19.01
2018-09-03T04:52:33.401Z,19.08
2018-09-03T04:53:33.441Z,19.06
2018-09-03T04:54:33.382Z,19.02
2018-09-03T04:55:33.350Z,19.08
2018-09-03T04:56:33.324Z,19.06
2018-09-03T04:57:33.363Z,19.01
2018-09-03T04:58:33.278Z,19.01
2018-09-03T04:59:33.275Z,19.08
2018-09-03T05:00:33.236Z,19.01
2018-09-03T05:01:33.287Z,19.02
2018-09-03T05:02:33.193Z,19.06
2018-09-03T05:03:33.199Z,19.05
2018-09-03T05:04:33.154Z,19.10
2018-09-03T05:05:33.318Z,19.05
2018-09-03T05:06:33.112Z,19.01
2018-09-03T05:07:33.120Z,19.11
2018-09-03T05:08:33.071Z,19.10
2018-09-03T05:09:33.133Z,19.02
2018-09-03T05:10:33.032Z,19.02
2018-09-03T05:11:33.057Z,19.08
2018-09-03T05:12:32.990Z,19.11
2018-09-03T05:13:33.055Z,19.05
2018-09-03T05:14:32.945Z,19.06
2018-09-03T05:15:32.965Z,19.08
2018-09-03T05:16:32.914Z,19.08
2018-09-03T05:17:32.973Z,19.01
2018-09-03T05:18:32.872Z,19.08
2018-09-03T05:19:32.889Z,19.13
2018-09-03T05:20:32.835Z,19.08
2018-09-03T05:21:32.905Z,19.10
2018-09-03T05:22:32.783Z,18.99
2018-09-03T05:23:32.807Z,18.91
2018-09-03T05:24:32.745Z,18.95
2018-09-03T05:25:32.820Z,18.99
2018-09-03T05:26:32.698Z,19.02
2018-09-03T05:27:32.731Z,18.87
2018-09-03T05:28:32.656Z,18.91
2018-09-03T05:29:32.744Z,18.92
2018-09-03T05:30:32.619Z,18.87
2018-09-03T05:31:32.654Z,18.87
2018-09-03T05:32:32.574Z,18.91
2018-09-03T05:33:32.564Z,18.95
2018-09-03T05:34:32.532Z,18.90
2018-09-03T05:35:32.572Z,18.92
2018-09-03T05:36:32.492Z,18.92
2018-09-03T05:37:32.487Z,19.01
2018-09-03T05:38:32.448Z,18.97
2018-09-03T05:39:32.500Z,18.95
2018-09-03T05:40:32.404Z,18.97
2018-09-03T05:41:32.410Z,18.95
2018-09-03T05:42:32.365Z,18.99
2018-09-03T05:43:32.676Z,19.02
2018-09-03T05:44:32.341Z,19.01
2018-09-03T05:45:32.331Z,18.92
2018-09-03T05:46:32.286Z,18.98
2018-09-03T05:47:32.346Z,18.91
2018-09-03T05:48:32.272Z,18.99
2018-09-03T05:49:32.259Z,19.02
2018-09-03T05:50:32.234Z,19.01
2018-09-03T05:51:32.269Z,19.06
2018-09-03T05:52:32.163Z,19.01
2018-09-03T05:53:32.185Z,18.99
2018-09-03T05:54:32.120Z,19.10
2018-09-03T05:55:32.195Z,19.08
2018-09-03T05:56:32.074Z,19.06
2018-09-03T05:57:32.207Z,19.01
2018-09-03T05:58:32.036Z,19.02
2018-09-03T05:59:32.116Z,19.11
2018-09-03T06:00:31.991Z,19.14
2018-09-03T06:01:32.028Z,19.05
2018-09-03T06:02:31.948Z,19.02
2018-09-03T06:03:32.042Z,19.01
2018-09-03T06:04:31.918Z,19.01
2018-09-03T06:05:31.948Z,19.14
2018-09-03T06:06:31.869Z,19.14
2018-09-03T06:07:31.961Z,19.02
2018-09-03T06:08:31.834Z,19.13
2018-09-03T06:09:31.871Z,19.06
2018-09-03T06:10:31.836Z,19.10
2018-09-03T06:11:31.782Z,19.05
2018-09-03T06:12:31.740Z,19.05
2018-09-03T06:13:31.727Z,19.10
2018-09-03T06:14:31.798Z,19.08
2018-09-03T06:15:31.684Z,19.13
2018-09-03T06:16:31.774Z,19.18
2018-09-03T06:17:31.639Z,19.14
2018-09-03T06:18:31.624Z,19.17
2018-09-03T06:19:31.686Z,19.28
2018-09-03T06:20:31.580Z,19.13
2018-09-03T06:21:31.697Z,19.28
2018-09-03T06:22:31.534Z,19.24
2018-09-03T06:23:31.611Z,19.33
2018-09-03T06:24:31.497Z,19.28
2018-09-03T06:25:31.623Z,19.35
2018-09-03T06:26:31.471Z,19.40
2018-09-03T06:27:31.534Z,19.33
2018-09-03T06:28:31.413Z,19.40
2018-09-03T06:29:31.549Z,19.40
2018-09-03T06:30:31.369Z,19.38
2018-09-03T06:31:31.461Z,19.40
2018-09-03T06:32:31.335Z,19.38
2018-09-03T06:33:31.375Z,19.36
2018-09-03T06:34:31.286Z,19.50
2018-09-03T06:35:31.288Z,19.42
2018-09-03T06:36:31.247Z,19.47
2018-09-03T06:37:31.300Z,19.54
2018-09-03T06:38:31.212Z,19.57
2018-09-03T06:39:31.182Z,19.60
2018-09-03T06:40:31.224Z,19.61
2018-09-03T06:41:31.144Z,19.60
2018-09-03T06:42:31.233Z,19.63
2018-09-03T06:43:31.104Z,19.61
2018-09-03T06:44:31.148Z,19.68
2018-09-03T06:45:31.060Z,19.63
2018-09-03T06:46:31.058Z,19.68
2018-09-03T06:47:31.018Z,19.69
2018-09-03T06:48:31.078Z,19.72
2018-09-03T06:49:30.980Z,19.76
2018-09-03T06:50:30.987Z,19.80
2018-09-03T06:51:30.951Z,19.70
2018-09-03T06:52:31.000Z,19.73
2018-09-03T06:53:30.911Z,19.78
2018-09-03T06:54:30.912Z,19.78
2018-09-03T06:55:30.854Z,19.79
2018-09-03T06:56:30.926Z,19.78
2018-09-03T06:57:30.819Z,19.87
2018-09-03T06:58:30.796Z,19.86
2018-09-03T06:59:30.867Z,19.90
2018-09-03T07:00:30.754Z,19.91
2018-09-03T07:01:30.759Z,19.95
2018-09-03T07:02:30.711Z,19.94
2018-09-03T07:03:30.777Z,19.95
2018-09-03T07:04:30.674Z,20.00
2018-09-03T07:05:30.690Z,19.90
2018-09-03T07:06:30.633Z,20.02
2018-09-03T07:07:30.699Z,20.00
2018-09-03T07:08:30.590Z,20.05
2018-09-03T07:09:30.610Z,20.03
2018-09-03T07:10:30.549Z,20.03
2018-09-03T07:11:30.628Z,20.05
2018-09-03T07:12:30.508Z,19.97
2018-09-03T07:13:30.540Z,20.06
2018-09-03T07:14:30.471Z,20.06
2018-09-03T07:15:30.559Z,20.06
2018-09-03T07:16:30.426Z,20.06
2018-09-03T07:17:30.468Z,20.00
2018-09-03T07:18:30.387Z,20.05
2018-09-03T07:19:30.474Z,20.00
2018-09-03T07:20:30.344Z,20.13
2018-09-03T07:21:30.388Z,20.13
2018-09-03T07:22:30.304Z,20.18
2018-09-03T07:23:30.300Z,20.20
2018-09-03T07:24:30.268Z,20.28
2018-09-03T07:25:30.317Z,20.30
2018-09-03T07:26:30.221Z,20.28
2018-09-03T07:27:30.227Z,20.25
2018-09-03T07:28:30.190Z,20.43
2018-09-03T07:29:30.241Z,20.47
2018-09-03T07:30:30.142Z,20.42
2018-09-03T07:31:30.152Z,20.46
2018-09-03T07:32:30.102Z,20.46
2018-09-03T07:33:30.166Z,20.43
2018-09-03T07:34:30.069Z,20.47
2018-09-03T07:35:30.118Z,20.53
2018-09-03T07:36:30.024Z,20.47
2018-09-03T07:37:30.093Z,20.53
2018-09-03T07:38:29.979Z,20.53
2018-09-03T07:39:30.001Z,20.50
2018-09-03T07:40:30.011Z,20.41
2018-09-03T07:41:29.927Z,20.35
2018-09-03T07:42:30.030Z,20.38
2018-09-03T07:43:29.882Z,20.35
2018-09-03T07:44:29.935Z,20.39
2018-09-03T07:45:29.846Z,20.33
2018-09-03T07:46:29.846Z,20.33
2018-09-03T07:47:29.836Z,20.28
2018-09-03T07:48:29.862Z,20.30
2018-09-03T07:49:29.760Z,20.30
2018-09-03T07:50:29.785Z,20.30
2018-09-03T07:51:29.730Z,20.28
2018-09-03T07:52:29.789Z,20.20
2018-09-03T07:53:29.683Z,20.23
2018-09-03T07:54:29.713Z,20.24
2018-09-03T07:55:29.643Z,20.25
2018-09-03T07:56:29.728Z,20.27
2018-09-03T07:57:29.602Z,20.25
2018-09-03T07:58:29.633Z,20.28
2018-09-03T07:59:29.570Z,20.33
2018-09-03T08:00:29.640Z,20.33
2018-09-03T08:01:29.522Z,20.28
2018-09-03T08:02:29.554Z,20.30
2018-09-03T08:03:29.478Z,20.18
2018-09-03T08:04:29.567Z,20.18
2018-09-03T08:05:29.440Z,20.18
2018-09-03T08:06:29.477Z,20.15
2018-09-03T08:07:29.404Z,20.20
2018-09-03T08:08:29.491Z,20.13
2018-09-03T08:09:29.359Z,20.10
2018-09-03T08:10:29.403Z,20.16
2018-09-03T08:11:29.321Z,20.16
2018-09-03T08:12:29.315Z,20.15
2018-09-03T08:13:29.279Z,20.16
2018-09-03T08:14:29.329Z,20.15
2018-09-03T08:15:29.238Z,20.13
2018-09-03T08:16:29.242Z,20.25
2018-09-03T08:17:29.198Z,20.16
2018-09-03T08:18:29.254Z,20.24
2018-09-03T08:19:29.161Z,20.21
2018-09-03T08:20:29.166Z,20.21
2018-09-03T08:21:29.118Z,20.16
2018-09-03T08:22:29.180Z,20.25
2018-09-03T08:23:29.076Z,20.30
2018-09-03T08:24:29.093Z,20.25
2018-09-03T08:25:29.036Z,20.30
2018-09-03T08:26:29.107Z,20.27
2018-09-03T08:27:29.000Z,20.31
2018-09-03T08:28:29.019Z,20.30
2018-09-03T08:29:28.957Z,20.28
2018-09-03T08:30:29.037Z,20.46
2018-09-03T08:31:28.923Z,20.43
2018-09-03T08:32:28.946Z,20.39
2018-09-03T08:33:28.880Z,20.42
2018-09-03T08:34:28.959Z,20.43
2018-09-03T08:35:28.847Z,20.50
2018-09-03T08:36:28.872Z,20.49
2018-09-03T08:37:28.806Z,20.46
2018-09-03T08:38:28.883Z,20.49
2018-09-03T08:39:28.754Z,20.46
2018-09-03T08:40:28.796Z,20.46
2018-09-03T08:41:28.718Z,20.39
2018-09-03T08:42:28.811Z,20.34
2018-09-03T08:43:28.675Z,20.35
2018-09-03T08:44:28.725Z,20.33
2018-09-03T08:45:28.635Z,20.34
2018-09-03T08:46:28.635Z,20.30
2018-09-03T08:47:28.597Z,20.24
2018-09-03T08:48:28.648Z,20.30
2018-09-03T08:49:28.560Z,20.31
2018-09-03T08:50:28.599Z,20.33
2018-09-03T08:51:28.521Z,20.27
2018-09-03T08:52:28.501Z,20.28
2018-09-03T08:53:28.477Z,20.27
2018-09-03T08:54:28.589Z,20.30
2018-09-03T08:55:28.442Z,20.16
2018-09-03T08:56:28.604Z,20.16
2018-09-03T08:57:28.510Z,20.21
2018-09-03T08:58:28.379Z,20.23
2018-09-03T08:59:28.523Z,20.18
2018-09-03T09:00:28.338Z,20.23
2018-09-03T09:01:28.462Z,20.18
2018-09-03T09:02:28.293Z,20.10
2018-09-03T09:03:28.448Z,20.21
2018-09-03T09:04:28.253Z,20.15
2018-09-03T09:05:28.360Z,20.20
2018-09-03T09:06:28.221Z,20.18
2018-09-03T09:07:28.374Z,20.16
2018-09-03T09:08:28.174Z,20.20
2018-09-03T09:09:28.286Z,20.20
2018-09-03T09:10:28.134Z,20.16
2018-09-03T09:11:28.301Z,20.08
2018-09-03T09:12:28.098Z,20.09
2018-09-03T09:13:28.213Z,20.20
2018-09-03T09:14:28.057Z,20.10
2018-09-03T09:15:28.125Z,20.21
2018-09-03T09:16:28.017Z,20.24
2018-09-03T09:17:28.044Z,20.16
2018-09-03T09:18:27.976Z,20.23
2018-09-03T09:19:28.053Z,20.21
2018-09-03T09:20:27.938Z,20.33
2018-09-03T09:21:27.962Z,20.24
2018-09-03T09:22:27.895Z,20.25
2018-09-03T09:23:27.977Z,20.33
2018-09-03T09:24:27.901Z,20.35
2018-09-03T09:25:27.888Z,20.30
2018-09-03T09:26:27.813Z,20.35
2018-09-03T09:27:27.902Z,20.30
2018-09-03T09:28:27.779Z,20.28
2018-09-03T09:29:27.813Z,20.38
2018-09-03T09:30:27.735Z,20.31
2018-09-03T09:31:27.828Z,20.33
2018-09-03T09:32:27.695Z,20.38
2018-09-03T09:33:27.739Z,20.31
2018-09-03T09:34:27.654Z,20.33
2018-09-03T09:35:27.755Z,20.42
2018-09-03T09:36:27.614Z,20.39
2018-09-03T09:37:27.667Z,20.38
2018-09-03T09:38:27.572Z,20.50
2018-09-03T09:39:27.681Z,20.54
2018-09-03T09:40:27.537Z,20.47
2018-09-03T09:41:27.592Z,20.56
2018-09-03T09:42:27.494Z,20.53
2018-09-03T09:43:27.605Z,20.51
2018-09-03T09:44:27.457Z,20.56
2018-09-03T09:45:27.520Z,20.58
2018-09-03T09:46:27.420Z,20.58
2018-09-03T09:47:27.532Z,20.64
2018-09-03T09:48:27.379Z,20.62
2018-09-03T09:49:27.444Z,20.56
2018-09-03T09:50:27.337Z,20.59
2018-09-03T09:51:27.461Z,20.61
2018-09-03T09:52:27.298Z,20.65
2018-09-03T09:53:27.371Z,20.59
2018-09-03T09:54:27.253Z,20.65
2018-09-03T09:55:27.382Z,20.62
2018-09-03T09:56:27.220Z,20.61
2018-09-03T09:57:27.300Z,20.58
2018-09-03T09:58:27.177Z,20.66
2018-09-03T09:59:27.310Z,20.65
2018-09-03T10:00:27.140Z,20.76
2018-09-03T10:01:27.174Z,20.59
2018-09-03T10:02:27.096Z,20.76
2018-09-03T10:03:27.188Z,20.72
2018-09-03T10:04:27.113Z,20.71
2018-09-03T10:05:27.148Z,20.62
2018-09-03T10:06:27.019Z,20.66
2018-09-03T10:07:27.161Z,20.58
2018-09-03T10:08:26.977Z,20.68
2018-09-03T10:09:27.075Z,20.68
2018-09-03T10:10:26.939Z,20.77
2018-09-03T10:11:26.985Z,20.79
2018-09-03T10:12:26.902Z,20.86
2018-09-03T10:13:27.001Z,20.87
2018-09-03T10:14:26.863Z,20.95
2018-09-03T10:15:26.912Z,20.98
2018-09-03T10:16:26.825Z,20.99
2018-09-03T10:17:26.925Z,21.01
2018-09-03T10:18:26.778Z,21.01
2018-09-03T10:19:26.838Z,21.04
2018-09-03T10:20:26.740Z,21.04
2018-09-03T10:21:26.852Z,21.04
2018-09-03T10:22:26.701Z,20.98
2018-09-03T10:23:26.864Z,20.98
2018-09-03T10:24:26.661Z,21.01
2018-09-03T10:25:26.787Z,20.99
2018-09-03T10:26:26.627Z,21.01
2018-09-03T10:27:26.689Z,20.98
2018-09-03T10:28:26.585Z,21.02
2018-09-03T10:29:26.710Z,21.09
2018-09-03T10:30:26.546Z,21.05
2018-09-03T10:31:26.622Z,21.04
2018-09-03T10:32:26.504Z,21.08
2018-09-03T10:33:26.631Z,21.06
2018-09-03T10:34:26.471Z,21.08
2018-09-03T10:35:26.542Z,21.09
2018-09-03T10:36:26.425Z,21.09
2018-09-03T10:37:26.560Z,21.13
2018-09-03T10:38:26.388Z,21.14
2018-09-03T10:39:26.476Z,21.24
2018-09-03T10:40:26.348Z,21.14
2018-09-03T10:41:26.477Z,21.20
2018-09-03T10:42:26.309Z,21.20
2018-09-03T10:43:26.397Z,21.16
2018-09-03T10:44:26.270Z,21.19
2018-09-03T10:45:26.412Z,21.17
2018-09-03T10:46:26.237Z,21.19
2018-09-03T10:47:26.351Z,21.13
2018-09-03T10:48:26.197Z,21.05
2018-09-03T10:49:26.337Z,21.08
2018-09-03T10:50:26.153Z,21.06
2018-09-03T10:51:26.252Z,21.02
2018-09-03T10:52:26.113Z,21.05
2018-09-03T10:53:26.321Z,21.04
2018-09-03T10:54:26.077Z,20.95
2018-09-03T10:55:26.176Z,21.04
2018-09-03T10:56:26.039Z,21.02
2018-09-03T10:57:26.189Z,20.99
2018-09-03T10:58:26.000Z,21.02
2018-09-03T10:59:26.103Z,21.01
2018-09-03T11:00:25.957Z,20.99
2018-09-03T11:01:26.115Z,20.99
2018-09-03T11:02:25.921Z,20.99
2018-09-03T11:03:26.030Z,20.96
2018-09-03T11:04:25.883Z,21.01
2018-09-03T11:05:26.040Z,20.89
2018-09-03T11:06:25.846Z,20.81
2018-09-03T11:07:25.957Z,20.89
2018-09-03T11:08:25.803Z,20.98
2018-09-03T11:09:25.963Z,20.99
2018-09-03T11:10:25.769Z,21.02
2018-09-03T11:11:25.879Z,21.11
2018-09-03T11:12:25.724Z,21.23
2018-09-03T11:13:25.900Z,21.09
2018-09-03T11:14:25.691Z,21.08
2018-09-03T11:15:25.699Z,20.98
2018-09-03T11:16:25.646Z,21.05
2018-09-03T11:17:25.710Z,21.08
2018-09-03T11:18:25.607Z,21.20
2018-09-03T11:19:25.613Z,21.13
2018-09-03T11:20:25.569Z,21.23
2018-09-03T11:21:25.787Z,21.26
2018-09-03T11:22:25.632Z,21.39
2018-09-03T11:23:25.535Z,21.39
2018-09-03T11:24:25.496Z,21.44
2018-09-03T11:25:25.563Z,21.45
2018-09-03T11:26:25.453Z,21.41
2018-09-03T11:27:25.467Z,21.38
2018-09-03T11:28:25.427Z,21.30
2018-09-03T11:29:25.471Z,21.44
2018-09-03T11:30:25.372Z,21.42
2018-09-03T11:31:25.381Z,21.39
2018-09-03T11:32:25.341Z,21.42
2018-09-03T11:33:25.418Z,21.46
2018-09-03T11:34:25.304Z,21.56
2018-09-03T11:35:25.305Z,21.69
2018-09-03T11:36:25.258Z,21.81
2018-09-03T11:37:25.320Z,21.97
2018-09-03T11:38:25.231Z,21.99
2018-09-03T11:39:25.264Z,22.16
2018-09-03T11:40:25.181Z,22.20
2018-09-03T11:41:25.273Z,22.35
2018-09-03T11:42:25.145Z,22.49
2018-09-03T11:43:25.181Z,22.64
2018-09-03T11:44:25.106Z,22.84
2018-09-03T11:45:25.196Z,22.94
2018-09-03T11:46:25.066Z,23.05
2018-09-03T11:47:25.109Z,23.14
2018-09-03T11:48:25.031Z,23.23
2018-09-03T11:49:25.124Z,23.22
2018-09-03T11:50:24.993Z,23.22
2018-09-03T11:51:25.034Z,23.23
2018-09-03T11:52:24.959Z,23.27
2018-09-03T11:53:25.048Z,23.14
2018-09-03T11:54:24.972Z,23.19
2018-09-03T11:55:24.961Z,23.02
2018-09-03T11:56:24.884Z,22.97
2018-09-03T11:57:24.974Z,23.07
2018-09-03T11:58:24.843Z,23.07
2018-09-03T11:59:24.886Z,23.15
2018-09-03T12:00:24.814Z,23.11
2018-09-03T12:01:24.900Z,23.19
2018-09-03T12:02:24.770Z,23.23
2018-09-03T12:03:24.915Z,22.97
2018-09-03T12:04:24.733Z,23.04
2018-09-03T12:05:24.824Z,23.11
2018-09-03T12:06:24.700Z,23.07
2018-09-03T12:07:24.839Z,23.20
2018-09-03T12:08:24.665Z,23.15
2018-09-03T12:09:24.752Z,23.26
2018-09-03T12:10:24.621Z,23.22
2018-09-03T12:11:24.765Z,23.09
2018-09-03T12:12:24.586Z,23.05
2018-09-03T12:13:24.680Z,23.09
2018-09-03T12:14:24.550Z,22.97
2018-09-03T12:15:24.697Z,23.08
2018-09-03T12:16:24.516Z,23.02
2018-09-03T12:17:24.605Z,23.14
2018-09-03T12:18:24.474Z,23.14
2018-09-03T12:19:24.624Z,23.19
2018-09-03T12:20:24.450Z,23.29
2018-09-03T12:21:24.532Z,23.40
2018-09-03T12:22:24.403Z,23.46
2018-09-03T12:23:24.550Z,23.57
2018-09-03T12:24:24.366Z,23.57
2018-09-03T12:25:24.461Z,23.65
2018-09-03T12:26:24.327Z,23.62
2018-09-03T12:27:24.473Z,23.80
2018-09-03T12:28:24.293Z,23.80
2018-09-03T12:29:24.392Z,23.85
2018-09-03T12:30:24.265Z,23.98
2018-09-03T12:31:24.480Z,23.92
2018-09-03T12:32:24.222Z,23.90
2018-09-03T12:33:24.311Z,24.00
2018-09-03T12:34:24.184Z,24.04
2018-09-03T12:35:24.327Z,24.16
2018-09-03T12:36:24.150Z,24.12
2018-09-03T12:37:24.237Z,24.16
2018-09-03T12:38:24.120Z,24.14
2018-09-03T12:39:24.255Z,24.17
2018-09-03T12:40:24.079Z,24.14
2018-09-03T12:41:24.162Z,24.10
2018-09-03T12:42:24.046Z,24.10
2018-09-03T12:43:24.178Z,24.04
2018-09-03T12:44:24.014Z,23.92
2018-09-03T12:45:24.192Z,24.00
2018-09-03T12:46:23.982Z,23.85
2018-09-03T12:47:24.103Z,24.04
2018-09-03T12:48:23.941Z,24.05
2018-09-03T12:49:24.120Z,24.04
2018-09-03T12:50:23.902Z,23.97
2018-09-03T12:51:24.083Z,24.01
2018-09-03T12:52:23.870Z,24.04